Data for 11/27/2010

Time Sea-Level Adjusted Pressure Absolute Pressure Temperature Relative Humidity Dew Point   
(mb) (inHg) (mb) (inHg) (C) (F) (%) (C) (F)
00:05 1015 29.97 844 24.92 -6.3 20.6 80 -9.3 15.3
00:10 1015 29.97 845 24.95 -6.2 20.8 80 -9.2 15.5
00:15 1015 29.97 844 24.92 -6.3 20.7 81 -9.1 15.7
00:20 1015 29.97 844 24.92 -6.2 20.8 80 -9.1 15.6
00:25 1015 29.97 844 24.92 -5.8 21.5 78 -9.1 15.6
00:30 1015 29.97 844 24.92 -5.6 22 77 -9 15.9
00:35 1015 29.97 844 24.92 -5.9 21.4 79 -8.9 16
00:40 1015 29.97 844 24.92 -6.1 21 79 -9.1 15.6
00:45 1014 29.94 844 24.92 -6 21.2 79 -9.1 15.7
00:50 1014 29.94 844 24.92 -5.8 21.6 78 -9.1 15.7
00:55 1015 29.97 844 24.92 -5.3 22.5 76 -8.9 16
01:00 1015 29.97 844 24.92 -5.5 22.1 78 -8.7 16.3
01:05 1014 29.94 844 24.92 -5.6 21.9 78 -8.9 15.9
01:10 1014 29.94 844 24.92 -5.9 21.4 79 -9 15.8
01:15 1014 29.94 844 24.92 -5.1 22.9 75 -8.9 16
01:20 1014 29.94 843 24.89 -4.6 23.7 77 -8.1 17.4
01:25 1014 29.94 843 24.89 -5 23 77 -8.4 16.8
01:30 1014 29.94 843 24.89 -5.2 22.6 76 -8.8 16.1
01:35 1014 29.94 844 24.92 -5.2 22.7 76 -8.8 16.2
01:40 1014 29.94 844 24.92 -5.1 22.8 75 -8.8 16.1
01:45 1014 29.94 843 24.89 -5 23.1 75 -8.7 16.4
01:50 1014 29.94 843 24.89 -5.1 22.9 77 -8.6 16.6
01:55 1014 29.94 843 24.89 -5.2 22.6 78 -8.5 16.7
02:00 1014 29.94 843 24.89 -5.4 22.3 78 -8.6 16.5
02:05 1014 29.94 843 24.89 -5.6 22 79 -8.7 16.3
02:10 1014 29.94 843 24.89 -5.7 21.8 79 -8.8 16.1
02:15 1014 29.94 843 24.89 -5.7 21.7 78 -8.9 15.9
02:20 1014 29.94 843 24.89 -5.6 21.9 78 -8.9 16
02:25 1014 29.94 843 24.89 -5.4 22.2 77 -8.9 16.1
02:30 1014 29.94 843 24.89 -5.1 22.8 76 -8.8 16.2
02:35 1014 29.94 843 24.89 -4.8 23.3 74 -8.7 16.3
02:40 1014 29.94 843 24.89 -4.2 24.4 72 -8.6 16.6
02:45 1014 29.94 843 24.89 -4.3 24.2 75 -8.1 17.3
02:50 1014 29.94 843 24.89 -4.5 23.9 76 -8.2 17.3
02:55 1014 29.94 843 24.89 -4.6 23.6 77 -8.1 17.5
03:00 1013 29.91 843 24.89 -4.8 23.5 78 -8 17.5
03:05 1013 29.91 843 24.89 -4.7 23.6 77 -8.2 17.2
03:10 1013 29.91 842 24.86 -4.7 23.6 77 -8.1 17.4
03:15 1013 29.91 842 24.86 -4.8 23.4 77 -8.3 17.1
03:20 1013 29.91 842 24.86 -3.8 25.1 70 -8.5 16.6
03:25 1013 29.91 842 24.86 -3 26.6 67 -8.3 17
03:30 1013 29.91 842 24.86 -2.6 27.3 68 -7.7 18.2
03:35 1013 29.91 842 24.86 -2.9 26.8 66 -8.4 16.9
03:40 1013 29.91 842 24.86 -2.6 27.3 67 -8 17.6
03:45 1013 29.91 842 24.86 -2.8 26.9 70 -7.5 18.4
03:50 1013 29.91 842 24.86 -3.1 26.4 69 -8.1 17.5
03:55 1013 29.91 842 24.86 -2.6 27.3 68 -7.7 18.1
04:00 1013 29.91 842 24.86 -2.8 26.9 70 -7.6 18.4
04:05 1012 29.88 842 24.86 -2.8 27 69 -7.7 18.1
04:10 1012 29.88 842 24.86 -2.6 27.4 69 -7.5 18.6
04:15 1012 29.88 841 24.83 -2.8 26.9 70 -7.5 18.4
04:20 1012 29.88 841 24.83 -2.6 27.4 71 -7.1 19.3
04:25 1012 29.88 841 24.83 -2.7 27.1 72 -7 19.3
04:30 1012 29.88 841 24.83 -2.7 27.1 71 -7.4 18.7
04:35 1012 29.88 841 24.83 -2.4 27.6 68 -7.5 18.5
04:40 1012 29.88 841 24.83 -2.2 28.1 68 -7.2 19
04:45 1012 29.88 841 24.83 -2.3 27.9 69 -7.2 19.1
04:50 1012 29.88 841 24.83 -2.2 28 71 -6.8 19.7
04:55 1012 29.88 841 24.83 -2.5 27.6 74 -6.5 20.2
05:00 1012 29.88 841 24.83 -3.2 26.2 76 -6.8 19.8
05:05 1012 29.88 841 24.83 -3.4 25.8 78 -6.7 19.9
05:10 1012 29.88 841 24.83 -3.7 25.4 78 -6.9 19.5
05:15 1012 29.88 841 24.83 -4.6 23.8 81 -7.4 18.7
05:20 1012 29.88 841 24.83 -4.8 23.3 82 -7.5 18.6
05:25 1011 29.85 841 24.83 -5.2 22.6 83 -7.7 18.2
05:30 1011 29.85 841 24.83 -5.3 22.4 81 -8.1 17.5
05:35 1011 29.85 840 24.81 -5.5 22.1 80 -8.5 16.7
05:40 1011 29.85 840 24.81 -5.5 22.2 78 -8.7 16.3
05:45 1011 29.85 840 24.81 -5.4 22.4 77 -8.7 16.3
05:50 1011 29.85 840 24.81 -5.2 22.6 77 -8.6 16.5
05:55 1011 29.85 840 24.81 -4.8 23.4 75 -8.6 16.5
06:00 1011 29.85 840 24.81 -4.2 24.5 72 -8.5 16.7
06:05 1011 29.85 840 24.81 -3.8 25.1 72 -8.2 17.3
06:10 1011 29.85 840 24.81 -3.7 25.4 72 -8.1 17.5
06:15 1011 29.85 840 24.81 -3.7 25.3 72 -8 17.6
06:20 1011 29.85 840 24.81 -3.9 24.9 74 -8 17.6
06:25 1011 29.85 840 24.81 -4.1 24.6 76 -7.8 18
06:30 1011 29.85 840 24.81 -4.3 24.3 77 -7.8 18
06:35 1011 29.85 840 24.81 -4.3 24.2 77 -7.7 18.1
06:40 1011 29.85 840 24.81 -4.1 24.6 73 -8.2 17.2
06:45 1010 29.83 840 24.81 -3.4 25.9 72 -7.8 18
06:50 1010 29.83 840 24.81 -3.5 25.6 75 -7.4 18.7
06:55 1010 29.83 840 24.81 -3.9 24.9 75 -7.8 18
07:00 1010 29.83 840 24.81 -3.9 25 76 -7.5 18.5
07:05 1010 29.83 839 24.78 -4.1 24.7 76 -7.8 18
07:10 1010 29.83 839 24.78 -4.1 24.6 77 -7.6 18.4
07:15 1010 29.83 839 24.78 -4.1 24.6 76 -7.8 18
07:20 1010 29.83 839 24.78 -4.1 24.5 75 -7.9 17.7
07:25 1010 29.83 839 24.78 -3.9 25 74 -7.9 17.8
07:30 1010 29.83 839 24.78 -3.4 25.9 72 -7.7 18.2
07:35 1010 29.83 839 24.78 -3.4 25.9 74 -7.5 18.6
07:40 1010 29.83 839 24.78 -3.4 25.8 74 -7.4 18.7
07:45 1010 29.83 839 24.78 -3.5 25.8 74 -7.4 18.6
07:50 1010 29.83 839 24.78 -3.2 26.2 73 -7.4 18.7
07:55 1010 29.83 839 24.78 -3.2 26.2 74 -7.2 19
08:00 1010 29.83 839 24.78 -3.3 26.1 72 -7.7 18.2
08:05 1010 29.83 839 24.78 -3 26.6 75 -6.9 19.6
08:10 1010 29.83 839 24.78 -3.1 26.3 71 -7.7 18.2
08:15 1010 29.83 839 24.78 -2.8 27 67 -8.1 17.5
08:20 1010 29.83 839 24.78 -2.6 27.3 66 -8.1 17.3
08:25 1010 29.83 839 24.78 -2.5 27.4 67 -7.8 17.9
08:30 1010 29.83 839 24.78 -2.6 27.4 68 -7.7 18.2
08:35 1010 29.83 839 24.78 -2.6 27.3 66 -8.2 17.2
08:40 1010 29.83 839 24.78 -2.5 27.4 66 -8 17.6
08:45 1010 29.83 839 24.78 -2.5 27.5 70 -7.2 19
08:50 1010 29.83 839 24.78 -2.4 27.6 70 -7.1 19.2
08:55 1010 29.83 839 24.78 -2.4 27.7 68 -7.5 18.5
09:00 1009 29.8 839 24.78 -2.3 27.9 70 -7 19.3
09:05 1009 29.8 839 24.78 -2.1 28.2 70 -6.9 19.6
09:10 1009 29.8 839 24.78 -2 28.4 72 -6.4 20.5
09:15 1009 29.8 838 24.75 -1.9 28.6 74 -5.9 21.3
09:20 1009 29.8 838 24.75 -1.7 29 73 -6 21.3
09:25 1009 29.8 838 24.75 -1.7 29 72 -6 21.2
09:30 1009 29.8 838 24.75 -1.3 29.6 71 -5.8 21.5
09:35 1009 29.8 838 24.75 -1.9 28.6 73 -6.1 21.1
09:40 1009 29.8 838 24.75 -1.2 29.9 69 -6.1 21
09:45 1009 29.8 838 24.75 -1.6 29.1 74 -5.7 21.8
09:50 1009 29.8 838 24.75 -1.2 29.9 69 -6.2 20.9
09:55 1009 29.8 838 24.75 -0.5 31.1 69 -5.4 22.3
10:00 1009 29.8 838 24.75 -0.5 31.1 67 -5.9 21.4
10:05 1009 29.8 838 24.75 -0.1 31.8 67 -5.6 21.9
10:10 1009 29.8 838 24.75 -0.2 31.6 68 -5.4 22.3
10:15 1009 29.8 838 24.75 -0.5 31.2 69 -5.5 22
10:20 1008 29.77 838 24.75 -0.5 31.1 70 -5.4 22.3
10:25 1008 29.77 838 24.75 -0.5 31.1 70 -5.2 22.6
10:30 1008 29.77 837 24.72 -0.5 31.1 69 -5.5 22.1
10:35 1008 29.77 837 24.72 -0.2 31.7 68 -5.4 22.2
10:40 1008 29.77 837 24.72 0.2 32.4 66 -5.4 22.3
10:45 1008 29.77 837 24.72 0.7 33.2 64 -5.4 22.3
10:50 1008 29.77 837 24.72 1 33.8 62 -5.4 22.3
10:55 1008 29.77 837 24.72 1.3 34.4 62 -5.3 22.5
11:00 1008 29.77 837 24.72 1.6 34.9 60 -5.2 22.6
11:05 1008 29.77 837 24.72 2 35.5 59 -5.2 22.6
11:10 1007 29.74 837 24.72 2 35.6 59 -5.1 22.9
11:15 1007 29.74 836 24.69 2.2 36 58 -5.2 22.7
11:20 1007 29.74 836 24.69 2.4 36.2 58 -5.1 22.9
11:25 1007 29.74 836 24.69 2.6 36.7 57 -5 22.9
11:30 1007 29.74 836 24.69 2.8 37 56 -5.1 22.7
11:35 1007 29.74 836 24.69 2.9 37.2 56 -5.1 22.9
11:40 1007 29.74 836 24.69 3.2 37.7 54 -5.2 22.6
11:45 1007 29.74 836 24.69 3.5 38.3 53 -5.1 22.8
11:50 1006 29.71 836 24.69 3.7 38.6 53 -5 23
11:55 1006 29.71 836 24.69 3.9 39.1 52 -5 22.9
12:00 1006 29.71 835 24.66 3.8 38.8 51 -5.4 22.3
12:05 1006 29.71 835 24.66 4 39.1 50 -5.5 22.2
12:10 1006 29.71 835 24.66 4 39.2 52 -5 22.9
12:15 1006 29.71 835 24.66 3.9 39 50 -5.7 21.8
12:20 1006 29.71 835 24.66 4 39.2 52 -4.9 23.1
12:25 1006 29.71 835 24.66 4.1 39.4 49 -5.8 21.5
12:30 1006 29.71 835 24.66 4.1 39.4 49 -5.7 21.7
12:35 1005 29.68 835 24.66 4.1 39.3 50 -5.3 22.4
12:40 1005 29.68 835 24.66 4.2 39.5 49 -5.5 22.1
12:45 1005 29.68 834 24.63 4.8 40.6 48 -5.4 22.3
12:50 1005 29.68 834 24.63 4.9 40.7 50 -4.6 23.7
12:55 1005 29.68 834 24.63 4.1 39.4 55 -4 24.7
13:00 1005 29.68 834 24.63 3.3 38 57 -4.4 24.1
13:05 1005 29.68 834 24.63 2.7 36.9 59 -4.6 23.8
13:10 1005 29.68 834 24.63 2.3 36.2 59 -4.8 23.3
13:15 1005 29.68 834 24.63 0.3 32.6 65 -5.5 22.1
13:20 1005 29.68 834 24.63 -0.2 31.7 69 -5.3 22.5
13:25 1005 29.68 834 24.63 -0.7 30.7 67 -6.1 21.1
13:30 1005 29.68 834 24.63 -0.7 30.7 68 -6 21.2
13:35 1005 29.68 834 24.63 -1 30.2 68 -6.1 21
13:40 1005 29.68 834 24.63 -0.7 30.7 65 -6.5 20.4
13:45 1005 29.68 834 24.63 -0.5 31.2 64 -6.4 20.5
13:50 1005 29.68 834 24.63 -0.2 31.7 64 -6.2 20.8
13:55 1005 29.68 834 24.63 -0 31.9 63 -6.3 20.6
14:00 1005 29.68 834 24.63 -0.1 31.9 63 -6.3 20.7
14:05 1005 29.68 834 24.63 -0.1 31.9 63 -6.2 20.8
14:10 1005 29.68 834 24.63 -0.1 31.8 63 -6.2 20.8
14:15 1005 29.68 834 24.63 -0.1 31.8 64 -6.2 20.9
14:20 1005 29.68 834 24.63 -0 32 64 -6.1 21
14:25 1005 29.68 834 24.63 0.2 32.4 62 -6.2 20.8
14:30 1005 29.68 834 24.63 0.6 33.1 62 -5.9 21.3
14:35 1005 29.68 834 24.63 1.2 34.1 60 -5.8 21.5
14:40 1005 29.68 834 24.63 1.4 34.5 60 -5.6 21.9
14:45 1005 29.68 834 24.63 1.3 34.4 60 -5.6 21.9
14:50 1005 29.68 834 24.63 1.4 34.5 59 -5.7 21.8
14:55 1005 29.68 834 24.63 1.4 34.5 63 -5 23
15:00 1005 29.68 834 24.63 0 32.1 68 -5.1 22.8
15:05 1005 29.68 834 24.63 -0.5 31.1 67 -5.8 21.5
15:10 1005 29.68 834 24.63 -0.8 30.5 68 -5.9 21.3
15:15 1005 29.68 834 24.63 -1 30.2 69 -6 21.2
15:20 1005 29.68 834 24.63 -0.9 30.5 66 -6.4 20.6
15:25 1005 29.68 834 24.63 -1.2 29.8 69 -6.2 20.9
15:30 1005 29.68 834 24.63 -1.2 29.9 68 -6.3 20.6
15:35 1005 29.68 834 24.63 -0.9 30.3 68 -6.2 20.9
15:40 1005 29.68 834 24.63 -1.1 30.1 71 -5.8 21.6
15:45 1005 29.68 834 24.63 -1 30.2 69 -5.9 21.4
15:50 1005 29.68 834 24.63 -0.8 30.6 69 -5.9 21.5
15:55 1005 29.68 834 24.63 -0.8 30.5 69 -5.8 21.5
16:00 1005 29.68 834 24.63 -0.9 30.4 69 -5.9 21.4
16:05 1005 29.68 834 24.63 -0.7 30.7 68 -6 21.3
16:10 1005 29.68 834 24.63 -0.8 30.6 68 -5.9 21.4
16:15 1005 29.68 834 24.63 -0.9 30.3 69 -6 21.2
16:20 1005 29.68 834 24.63 -1 30.2 69 -6.1 21.1
16:25 1005 29.68 834 24.63 -1.1 30 70 -6 21.3
16:30 1005 29.68 834 24.63 -1.3 29.7 70 -6 21.2
16:35 1005 29.68 834 24.63 -1.1 29.9 71 -5.8 21.6
16:40 1005 29.68 834 24.63 -1.3 29.8 70 -6 21.1
16:45 1005 29.68 834 24.63 -1.3 29.7 70 -6 21.3
16:50 1005 29.68 834 24.63 -1.3 29.7 74 -5.4 22.3
16:55 1004 29.65 834 24.63 -1.2 29.8 73 -5.5 22
17:00 1004 29.65 834 24.63 -1 30.3 70 -5.8 21.5
17:05 1004 29.65 834 24.63 -1.1 30.1 71 -5.7 21.8
17:10 1004 29.65 834 24.63 -1.3 29.6 72 -5.7 21.7
17:15 1004 29.65 834 24.63 -1.6 29.1 76 -5.3 22.4
17:20 1004 29.65 834 24.63 -1.6 29.1 73 -5.9 21.4
17:25 1004 29.65 834 24.63 -1.3 29.6 72 -5.7 21.7
17:30 1004 29.65 834 24.63 -1.4 29.5 71 -5.9 21.4
17:35 1004 29.65 834 24.63 -1.3 29.7 71 -5.9 21.4
17:40 1004 29.65 833 24.6 -1.2 29.9 70 -5.9 21.4
17:45 1004 29.65 833 24.6 -1.1 30 72 -5.6 21.9
17:50 1004 29.65 833 24.6 -1.3 29.7 71 -5.8 21.6
17:55 1004 29.65 833 24.6 -1.1 30 73 -5.4 22.2
18:00 1004 29.65 833 24.6 -1.1 30.1 73 -5.4 22.4
18:05 1004 29.65 833 24.6 -1 30.3 73 -5.3 22.5
18:10 1004 29.65 833 24.6 -0.8 30.6 73 -5 22.9
18:15 1004 29.65 833 24.6 -0.7 30.7 74 -4.8 23.3
18:20 1004 29.65 833 24.6 -0.7 30.7 74 -4.8 23.3
18:25 1004 29.65 833 24.6 -0.7 30.8 75 -4.6 23.6
18:30 1004 29.65 833 24.6 -0.6 31 74 -4.6 23.7
18:35 1004 29.65 833 24.6 -0.5 31.1 74 -4.7 23.6
18:40 1004 29.65 833 24.6 -0.4 31.3 73 -4.6 23.7
18:45 1004 29.65 833 24.6 -0.3 31.4 72 -4.8 23.3
18:50 1004 29.65 833 24.6 -0.3 31.4 72 -4.8 23.3
18:55 1004 29.65 833 24.6 -0.4 31.2 72 -4.8 23.3
19:00 1004 29.65 833 24.6 -0.4 31.3 73 -4.6 23.8
19:05 1004 29.65 833 24.6 -0.6 30.9 75 -4.5 24
19:10 1004 29.65 833 24.6 -0.8 30.6 75 -4.7 23.6
19:15 1004 29.65 833 24.6 -0.9 30.3 75 -4.8 23.4
19:20 1004 29.65 833 24.6 -1.2 29.9 76 -4.9 23.1
19:25 1004 29.65 833 24.6 -1.2 29.9 74 -5.2 22.6
19:30 1004 29.65 833 24.6 -0.8 30.6 72 -5.2 22.6
19:35 1004 29.65 833 24.6 -0.7 30.7 72 -5.1 22.7
19:40 1004 29.65 833 24.6 -0.7 30.8 71 -5.3 22.5
19:45 1004 29.65 833 24.6 -0.3 31.4 67 -5.8 21.6
19:50 1004 29.65 833 24.6 0.1 32.1 69 -4.9 23.2
19:55 1004 29.65 833 24.6 -0.2 31.6 71 -4.8 23.3
20:00 1004 29.65 833 24.6 -0.3 31.5 68 -5.4 22.3
20:05 1004 29.65 833 24.6 0.1 32.2 70 -4.7 23.5
20:10 1004 29.65 833 24.6 -0.3 31.5 74 -4.3 24.2
20:15 1004 29.65 833 24.6 -0.7 30.7 79 -4 24.8
20:20 1004 29.65 833 24.6 -0.9 30.4 78 -4.2 24.5
20:25 1004 29.65 833 24.6 -1 30.2 78 -4.4 24.1
20:30 1004 29.65 833 24.6 -0.7 30.8 75 -4.6 23.7
20:35 1004 29.65 833 24.6 -0.7 30.8 76 -4.5 23.9
20:40 1004 29.65 833 24.6 -1 30.2 78 -4.3 24.3
20:45 1004 29.65 833 24.6 -1.1 30 79 -4.3 24.3
20:50 1004 29.65 833 24.6 -1.2 29.8 77 -4.7 23.5
20:55 1004 29.65 833 24.6 -1.1 30.1 76 -4.8 23.4
21:00 1004 29.65 833 24.6 -1.1 30.1 77 -4.6 23.7
21:05 1004 29.65 833 24.6 -1.3 29.7 79 -4.4 24.1
21:10 1004 29.65 833 24.6 -1.5 29.3 82 -4.1 24.6
21:15 1004 29.65 833 24.6 -1.7 28.9 85 -3.9 25
21:20 1004 29.65 833 24.6 -2 28.3 88 -3.7 25.3
21:25 1004 29.65 833 24.6 -2.4 27.7 91 -3.7 25.3
21:30 1004 29.65 833 24.6 -2.6 27.3 92 -3.7 25.4
21:35 1004 29.65 833 24.6 -2.6 27.3 94 -3.5 25.7
21:40 1004 29.65 833 24.6 -2.4 27.6 93 -3.4 25.8
21:45 1004 29.65 833 24.6 -2.4 27.7 93 -3.4 25.8
21:50 1004 29.65 833 24.6 -2.4 27.7 93 -3.3 26
21:55 1004 29.65 833 24.6 -2.4 27.7 93 -3.4 25.8
22:00 1004 29.65 833 24.6 -2.6 27.4 93 -3.5 25.7
22:05 1004 29.65 833 24.6 -2.6 27.3 94 -3.4 25.8
22:10 1004 29.65 833 24.6 -2.6 27.3 94 -3.4 25.9
22:15 1004 29.65 833 24.6 -2.3 27.9 92 -3.4 25.9
22:20 1004 29.65 833 24.6 -2.3 27.9 92 -3.5 25.8
22:25 1004 29.65 833 24.6 -2.3 27.9 92 -3.5 25.7
22:30 1004 29.65 833 24.6 -2.3 27.9 92 -3.5 25.7
22:35 1004 29.65 833 24.6 -2.2 28 92 -3.3 26
22:40 1004 29.65 833 24.6 -2.3 27.9 92 -3.4 25.9
22:45 1003 29.62 833 24.6 -2.3 27.8 92 -3.4 25.8
22:50 1003 29.62 833 24.6 -2.3 27.9 91 -3.5 25.7
22:55 1004 29.65 833 24.6 -2.3 27.8 92 -3.5 25.7
23:00 1004 29.65 833 24.6 -2.4 27.7 93 -3.4 25.8
23:05 1004 29.65 833 24.6 -2.3 27.8 93 -3.3 26
23:10 1003 29.62 833 24.6 -2.2 28 92 -3.3 26
23:15 1003 29.62 833 24.6 -2.2 28 92 -3.3 26.1
23:20 1003 29.62 833 24.6 -2.3 27.9 93 -3.3 26.1
23:25 1003 29.62 833 24.6 -2.2 28.1 93 -3.2 26.2
23:30 1003 29.62 833 24.6 -2.1 28.2 92 -3.2 26.2
23:35 1003 29.62 833 24.6 -2.2 28.1 91 -3.4 25.9
23:40 1003 29.62 833 24.6 -2.2 28 91 -3.5 25.6
23:45 1003 29.62 833 24.6 -2.3 27.9 90 -3.6 25.4
23:50 1003 29.62 833 24.6 -2.2 28 91 -3.5 25.6
23:55 1003 29.62 833 24.6 -2.3 27.9 90 -3.7 25.4
24:00 1003 29.62 833 24.6 -2.2 28 90 -3.6 25.5